Time;durP1;ratioP1;P1;durP2;ratioP2;P2;SDS_P1;SDS_P2;PMS_P1;PMS_P2;Temp;Humidity;BMP_temperature;BMP_pressure;BME280_temperature;BME280_humidity;BME280_pressure;Samples;Min_cycle;Max_cycle;Signal;HPM_P1;HPM_P2
2021/03/18 00:00:17;;;;;;;4.40;1.13;;;3.20;99.90;;;;;;10427261;28;20383;-53
2021/03/18 00:05:40;;;;;;;0.82;0.40;;;3.10;99.90;;;;;;10439045;28;20400;-53
2021/03/18 00:11:04;;;;;;;1.98;1.00;;;3.00;99.90;;;;;;10430381;28;20041;-53
2021/03/18 00:16:25;;;;;;;0.47;0.40;;;2.90;99.90;;;;;;10401551;28;20068;-53
2021/03/18 00:21:46;;;;;;;0.40;0.20;;;2.80;99.90;;;;;;10421561;28;20072;-53
2021/03/18 00:27:08;;;;;;;1.25;0.90;;;2.80;99.90;;;;;;10441894;28;20430;-53
2021/03/18 00:32:29;;;;;;;1.58;0.30;;;2.90;99.90;;;;;;10439928;28;20692;-53
2021/03/18 00:37:51;;;;;;;0.85;0.40;;;2.80;99.90;;;;;;10441591;28;20047;-53
2021/03/18 00:43:15;;;;;;;3.03;0.73;;;2.80;99.90;;;;;;10441743;28;20037;-53
2021/03/18 00:48:37;;;;;;;1.20;0.38;;;2.80;99.90;;;;;;10441239;28;20043;-53
2021/03/18 00:53:58;;;;;;;1.60;0.38;;;2.90;99.90;;;;;;10441073;28;20049;-53
2021/03/18 00:59:19;;;;;;;2.05;0.28;;;2.90;99.90;;;;;;10440632;28;20144;-53
2021/03/18 01:04:40;;;;;;;1.67;1.00;;;2.90;99.90;;;;;;10441444;28;20453;-53
2021/03/18 01:10:00;;;;;;;2.72;0.40;;;2.80;99.90;;;;;;10440200;28;20045;-53
2021/03/18 01:15:25;;;;;;;1.05;0.30;;;2.80;99.90;;;;;;10448501;28;20041;-53
2021/03/18 01:20:46;;;;;;;1.52;0.55;;;2.80;99.90;;;;;;10446946;28;20043;-53
2021/03/18 01:26:08;;;;;;;2.05;0.57;;;2.80;99.90;;;;;;10448799;28;20045;-53
2021/03/18 01:31:31;;;;;;;1.42;0.65;;;2.70;99.90;;;;;;10448974;28;20037;-53
2021/03/18 01:36:52;;;;;;;1.10;0.45;;;2.70;99.90;;;;;;10422929;28;20040;-53
2021/03/18 01:42:13;;;;;;;5.47;0.40;;;2.60;99.90;;;;;;10425228;28;20086;-53
2021/03/18 01:47:36;;;;;;;1.15;0.40;;;2.60;99.90;;;;;;10446881;28;20029;-53
2021/03/18 01:52:57;;;;;;;0.82;0.40;;;2.50;99.90;;;;;;10448486;28;20041;-53
2021/03/18 01:58:19;;;;;;;2.33;0.63;;;2.40;99.90;;;;;;10446576;28;20037;-53
2021/03/18 02:03:41;;;;;;;4.00;0.93;;;2.50;99.90;;;;;;10447519;28;20053;-53
2021/03/18 02:09:02;;;;;;;10.38;0.80;;;2.50;99.90;;;;;;10447085;28;20036;-53
2021/03/18 02:14:23;;;;;;;1.10;0.43;;;2.50;99.90;;;;;;10445502;28;20488;-53
2021/03/18 02:20:15;;;;;;;3.22;0.75;;;2.50;99.90;;;;;;10445407;28;20048;-53
2021/03/18 02:26:04;;;;;;;1.92;0.82;;;2.60;99.90;;;;;;10446295;28;20059;-53
2021/03/18 02:31:33;;;;;;;1.63;0.60;;;2.60;99.90;;;;;;10445136;28;20036;-53
2021/03/18 02:37:00;;;;;;;3.40;1.05;;;2.70;99.90;;;;;;10447215;28;20033;-53
2021/03/18 02:42:23;;;;;;;1.05;0.57;;;2.80;99.90;;;;;;10443280;28;20025;-53
2021/03/18 02:47:50;;;;;;;3.97;1.30;;;2.90;99.90;;;;;;10442079;28;20095;-53
2021/03/18 02:53:14;;;;;;;3.15;1.45;;;3.00;99.90;;;;;;10409636;28;20038;-53
2021/03/18 02:58:38;;;;;;;3.10;1.40;;;3.00;99.90;;;;;;10443743;28;20029;-53
2021/03/18 03:04:03;;;;;;;3.42;1.42;;;3.10;99.90;;;;;;10443789;28;20493;-53
2021/03/18 03:09:24;;;;;;;4.15;1.35;;;3.10;99.90;;;;;;10443605;28;20033;-53
2021/03/18 03:14:47;;;;;;;3.92;1.38;;;3.10;99.90;;;;;;10442012;28;20086;-53
2021/03/18 03:20:10;;;;;;;3.13;1.10;;;3.30;99.90;;;;;;10442832;28;20076;-53
2021/03/18 03:25:33;;;;;;;11.07;1.60;;;3.30;99.90;;;;;;10442115;28;20134;-53
2021/03/18 03:30:56;;;;;;;1.77;0.80;;;3.40;99.90;;;;;;10445007;28;20037;-53
2021/03/18 03:36:18;;;;;;;6.10;1.50;;;3.40;99.90;;;;;;10427653;28;20373;-53
2021/03/18 03:41:39;;;;;;;11.98;2.08;;;3.50;99.90;;;;;;10441892;28;20064;-53
2021/03/18 03:47:02;;;;;;;3.90;1.27;;;3.50;99.90;;;;;;10442753;28;20065;-53
2021/03/18 03:52:34;;;;;;;9.75;3.13;;;3.60;99.90;;;;;;10443071;28;20441;-53
2021/03/18 03:57:59;;;;;;;2.38;1.27;;;3.50;99.90;;;;;;10443203;28;20102;-53
2021/03/18 04:03:22;;;;;;;3.67;1.58;;;3.50;99.90;;;;;;10441475;28;20397;-53
2021/03/18 04:08:45;;;;;;;3.97;1.77;;;3.50;99.90;;;;;;10439085;28;20265;-53
2021/03/18 04:14:10;;;;;;;9.70;2.33;;;3.50;99.90;;;;;;10442904;28;20098;-53
2021/03/18 04:19:31;;;;;;;4.15;1.35;;;3.50;99.90;;;;;;10441483;28;20083;-53
2021/03/18 04:24:53;;;;;;;6.05;2.38;;;3.50;99.90;;;;;;10443464;28;20036;-53
2021/03/18 04:30:15;;;;;;;3.40;1.77;;;3.40;99.90;;;;;;10443205;28;20389;-53
2021/03/18 04:35:37;;;;;;;7.25;2.10;;;3.30;99.90;;;;;;10441866;28;20094;-53
2021/03/18 04:40:59;;;;;;;6.03;1.98;;;3.20;99.90;;;;;;10442521;28;20041;-53
2021/03/18 04:46:21;;;;;;;3.63;1.63;;;3.10;99.90;;;;;;10440865;28;20474;-53
2021/03/18 04:51:44;;;;;;;6.47;1.35;;;3.00;99.90;;;;;;10448606;28;20488;-53
2021/03/18 04:57:06;;;;;;;3.92;1.70;;;2.90;99.90;;;;;;10449287;28;20571;-53
2021/03/18 05:02:27;;;;;;;5.80;1.55;;;2.80;99.90;;;;;;10448585;28;20090;-53
2021/03/18 05:07:51;;;;;;;6.00;2.22;;;2.70;99.90;;;;;;10448746;28;20121;-53
2021/03/18 05:13:13;;;;;;;4.28;1.90;;;2.60;99.90;;;;;;10433651;28;20037;-53
2021/03/18 05:18:35;;;;;;;6.72;1.30;;;2.60;99.90;;;;;;10448998;28;20041;-53
2021/03/18 05:23:58;;;;;;;3.22;1.67;;;2.60;99.90;;;;;;10447256;28;20748;-53
2021/03/18 05:29:19;;;;;;;3.33;1.42;;;2.60;99.90;;;;;;10431759;28;20033;-53
2021/03/18 05:34:40;;;;;;;3.25;1.52;;;2.50;99.90;;;;;;10445469;28;20067;-53
2021/03/18 05:40:08;;;;;;;6.70;1.40;;;2.60;99.90;;;;;;10448660;28;20037;-53
2021/03/18 05:45:29;;;;;;;3.90;1.48;;;2.60;99.90;;;;;;10446456;28;20052;-53
2021/03/18 05:50:51;;;;;;;3.10;1.52;;;2.70;99.90;;;;;;10447590;28;20088;-53
2021/03/18 05:56:17;;;;;;;2.63;1.35;;;2.80;99.90;;;;;;10446589;28;20044;-53
2021/03/18 06:01:40;;;;;;;4.93;2.38;;;2.90;99.90;;;;;;10446113;28;20341;-53
2021/03/18 06:07:03;;;;;;;3.60;1.73;;;3.00;99.90;;;;;;10445689;28;20043;-53
2021/03/18 06:12:24;;;;;;;7.68;1.90;;;3.10;99.90;;;;;;10446223;28;20029;-53
2021/03/18 06:17:45;;;;;;;2.13;1.30;;;3.40;99.90;;;;;;10445130;28;20037;-53
2021/03/18 06:23:09;;;;;;;5.28;2.35;;;3.40;99.90;;;;;;10447864;28;20025;-53
2021/03/18 06:28:36;;;;;;;4.05;1.45;;;3.40;99.90;;;;;;10445296;28;20037;-53
2021/03/18 06:33:57;;;;;;;3.88;1.50;;;3.50;99.90;;;;;;10445804;28;20302;-53
2021/03/18 06:39:18;;;;;;;2.92;1.50;;;3.60;99.90;;;;;;10421486;28;20632;-53
2021/03/18 06:44:39;;;;;;;4.25;1.50;;;3.70;99.90;;;;;;10419918;28;20025;-53
2021/03/18 06:50:01;;;;;;;11.68;1.85;;;3.70;99.90;;;;;;10444765;28;20033;-53
2021/03/18 06:55:25;;;;;;;5.03;1.25;;;3.80;99.90;;;;;;10446185;28;20116;-53
2021/03/18 07:01:08;;;;;;;11.15;1.50;;;3.90;99.90;;;;;;10445151;28;20500;-53
2021/03/18 07:06:31;;;;;;;11.82;2.40;;;4.10;99.90;;;;;;10446160;28;20105;-53
2021/03/18 07:12:02;;;;;;;3.78;1.35;;;4.30;99.90;;;;;;10444921;28;20469;-53
2021/03/18 07:17:35;;;;;;;5.47;1.50;;;4.40;99.90;;;;;;10444022;28;20064;-53
2021/03/18 07:22:56;;;;;;;7.00;1.58;;;4.60;99.90;;;;;;10441543;28;20029;-53
2021/03/18 07:28:23;;;;;;;3.97;1.58;;;4.70;99.90;;;;;;10432360;28;20033;-53
2021/03/18 07:33:45;;;;;;;12.38;1.67;;;4.80;99.90;;;;;;10429616;28;20041;-53
2021/03/18 07:39:08;;;;;;;8.80;2.10;;;5.00;99.90;;;;;;10436699;28;20024;-53
2021/03/18 07:44:29;;;;;;;5.82;2.05;;;5.30;99.90;;;;;;10443036;28;20115;-53
2021/03/18 07:49:53;;;;;;;3.70;1.80;;;5.40;99.90;;;;;;10443107;28;20033;-53
2021/03/18 07:55:20;;;;;;;8.82;2.10;;;5.50;99.90;;;;;;10434676;28;20543;-53
2021/03/18 08:00:44;;;;;;;8.50;1.35;;;5.60;99.90;;;;;;10434352;28;20053;-53
2021/03/18 08:06:05;;;;;;;8.85;1.98;;;5.60;99.90;;;;;;10442635;28;20108;-53
2021/03/18 08:11:33;;;;;;;5.15;1.20;;;5.60;99.90;;;;;;10441124;28;20072;-55
2021/03/18 08:16:55;;;;;;;8.50;2.15;;;5.70;99.90;;;;;;10443187;28;20044;-53
2021/03/18 08:22:29;;;;;;;5.85;1.45;;;5.80;99.90;;;;;;10441964;28;20135;-53
2021/03/18 08:27:50;;;;;;;6.53;2.38;;;5.90;99.90;;;;;;10439169;28;20052;-53
2021/03/18 08:33:31;;;;;;;3.65;1.20;;;6.10;99.90;;;;;;10441833;28;20037;-53
2021/03/18 08:39:08;;;;;;;2.88;1.33;;;6.20;99.90;;;;;;10441595;28;20041;-53
2021/03/18 08:44:40;;;;;;;5.68;1.52;;;6.20;99.90;;;;;;10411899;28;20025;-53
2021/03/18 08:50:02;;;;;;;3.63;1.13;;;6.30;99.90;;;;;;10431256;28;20045;-53
2021/03/18 08:55:35;;;;;;;6.68;2.72;;;6.40;99.90;;;;;;10441736;28;20108;-53
2021/03/18 09:00:56;;;;;;;6.72;1.60;;;6.50;99.90;;;;;;10420770;28;20505;-53
2021/03/18 09:06:19;;;;;;;4.45;1.10;;;6.60;99.90;;;;;;10438530;28;20041;-53
2021/03/18 09:11:41;;;;;;;12.13;1.70;;;6.70;99.90;;;;;;10436365;28;20037;-53
2021/03/18 09:17:13;;;;;;;5.63;1.33;;;6.70;99.90;;;;;;10441190;28;20072;-53
2021/03/18 09:22:34;;;;;;;3.65;1.60;;;6.80;99.90;;;;;;10440530;28;20075;-53
2021/03/18 09:27:58;;;;;;;2.42;0.93;;;6.90;99.90;;;;;;10440037;28;20076;-53
2021/03/18 09:33:29;;;;;;;4.03;1.67;;;7.00;99.90;;;;;;10443079;28;20033;-53
2021/03/18 09:39:11;;;;;;;5.82;0.60;;;7.10;99.90;;;;;;10447724;28;20116;-53
2021/03/18 09:44:33;;;;;;;2.78;1.52;;;7.30;99.90;;;;;;10436547;28;20022;-53
2021/03/18 09:49:54;;;;;;;1.08;0.47;;;7.40;99.90;;;;;;10405707;28;20493;-53
2021/03/18 09:55:16;;;;;;;2.03;0.63;;;7.40;99.90;;;;;;10425312;28;20546;-53
2021/03/18 10:00:38;;;;;;;3.00;0.82;;;7.30;99.90;;;;;;10430348;28;20246;-53
2021/03/18 10:06:10;;;;;;;2.88;0.80;;;7.20;99.90;;;;;;10425421;28;20068;-53
2021/03/18 10:11:31;;;;;;;3.47;0.70;;;7.20;99.90;;;;;;10428817;28;20106;-53
2021/03/18 10:16:53;;;;;;;3.75;0.85;;;7.20;99.90;;;;;;10444660;28;20511;-53
2021/03/18 10:22:14;;;;;;;8.63;1.27;;;7.20;99.90;;;;;;10442992;28;20029;-53
2021/03/18 10:27:41;;;;;;;2.45;1.00;;;7.10;99.90;;;;;;10410989;28;20064;-53
2021/03/18 10:33:18;;;;;;;5.57;0.90;;;7.20;99.90;;;;;;10443088;28;20044;-53
2021/03/18 10:38:41;;;;;;;4.88;1.30;;;7.10;99.90;;;;;;10446898;28;20064;-53
2021/03/18 10:44:02;;;;;;;6.00;1.73;;;7.10;99.90;;;;;;10436959;28;20241;-53
2021/03/18 10:49:28;;;;;;;1.85;0.60;;;6.90;99.90;;;;;;10444459;28;20090;-53
2021/03/18 10:54:54;;;;;;;2.35;1.00;;;6.90;99.90;;;;;;10429391;28;20081;-53
2021/03/18 11:00:20;;;;;;;6.25;1.63;;;6.90;99.90;;;;;;10443790;28;20447;-53
2021/03/18 11:05:46;;;;;;;3.78;1.40;;;6.90;99.90;;;;;;10442929;28;20279;-53
2021/03/18 11:11:15;;;;;;;2.72;0.88;;;7.00;99.90;;;;;;10422415;28;20037;-53
2021/03/18 11:16:37;;;;;;;3.33;0.90;;;7.20;99.90;;;;;;10443350;28;20076;-53
2021/03/18 11:22:03;;;;;;;6.15;1.65;;;7.40;99.90;;;;;;10443950;28;20037;-53
2021/03/18 11:27:26;;;;;;;4.68;1.13;;;7.60;99.90;;;;;;10443820;28;20345;-53
2021/03/18 11:32:46;;;;;;;1.88;1.10;;;7.60;99.90;;;;;;10443619;28;20369;-53
2021/03/18 11:38:08;;;;;;;4.95;0.82;;;7.50;99.90;;;;;;10410430;28;20036;-53
2021/03/18 11:43:29;;;;;;;4.93;1.80;;;7.50;99.90;;;;;;10416157;28;20033;-53
2021/03/18 11:48:50;;;;;;;6.05;1.17;;;7.40;99.90;;;;;;10419342;28;20419;-53
2021/03/18 11:54:11;;;;;;;8.18;1.70;;;7.40;99.90;;;;;;10440541;28;20038;-53
2021/03/18 11:59:33;;;;;;;2.78;0.82;;;7.40;99.90;;;;;;10442032;28;20524;-53
2021/03/18 12:04:54;;;;;;;2.47;1.48;;;7.50;99.90;;;;;;10432513;28;20477;-53
2021/03/18 12:10:16;;;;;;;1.48;0.52;;;7.70;99.90;;;;;;10432980;28;20045;-53
2021/03/18 12:15:37;;;;;;;5.22;0.90;;;7.80;99.90;;;;;;10406821;28;20047;-53
2021/03/18 12:20:58;;;;;;;3.05;0.60;;;7.90;99.90;;;;;;10406114;28;20030;-53
2021/03/18 12:26:19;;;;;;;3.45;0.35;;;7.90;99.90;;;;;;10421526;28;20037;-53
2021/03/18 12:31:40;;;;;;;1.85;0.55;;;8.00;99.90;;;;;;10438369;28;20045;-53
2021/03/18 12:37:01;;;;;;;3.70;0.82;;;7.90;99.90;;;;;;10440523;28;20102;-53
2021/03/18 12:42:22;;;;;;;0.80;0.43;;;7.80;99.90;;;;;;10441334;28;20036;-53
2021/03/18 12:47:44;;;;;;;1.42;0.30;;;7.70;99.90;;;;;;10439836;28;20034;-53
2021/03/18 12:53:05;;;;;;;1.77;0.35;;;7.50;99.90;;;;;;10441687;28;20029;-53
2021/03/18 12:58:27;;;;;;;2.20;1.13;;;7.40;99.90;;;;;;10440479;28;20063;-53
2021/03/18 13:03:48;;;;;;;0.85;0.20;;;7.30;99.90;;;;;;10441139;28;20179;-53
2021/03/18 13:09:09;;;;;;;4.28;0.60;;;7.30;99.90;;;;;;10446743;28;20036;-53
2021/03/18 13:14:30;;;;;;;1.23;0.40;;;7.60;99.90;;;;;;10449282;28;20036;-53
2021/03/18 13:19:52;;;;;;;1.98;0.22;;;7.80;99.90;;;;;;10448478;28;20047;-53
2021/03/18 13:25:14;;;;;;;2.20;0.60;;;8.40;99.90;;;;;;10447210;28;20043;-53
2021/03/18 13:30:35;;;;;;;2.10;0.85;;;10.70;99.90;;;;;;10449729;28;20475;-54
2021/03/18 13:35:56;;;;;;;1.48;0.20;;;13.70;99.90;;;;;;10447016;28;20821;-54
2021/03/18 13:41:17;;;;;;;1.38;0.47;;;13.80;99.90;;;;;;10447762;28;20098;-54
2021/03/18 13:46:38;;;;;;;3.40;0.70;;;12.70;99.90;;;;;;10447352;28;20147;-53
2021/03/18 13:52:01;;;;;;;1.73;0.38;;;11.10;99.90;;;;;;10447540;28;20041;-53
2021/03/18 13:57:22;;;;;;;6.28;0.65;;;10.00;99.90;;;;;;10439301;28;20481;-53
2021/03/18 14:02:43;;;;;;;1.05;0.63;;;9.30;99.90;;;;;;10448383;28;20485;-53
2021/03/18 14:08:06;;;;;;;2.63;0.28;;;9.10;99.90;;;;;;10441612;28;20589;-53
2021/03/18 14:13:27;;;;;;;5.78;0.85;;;9.00;99.90;;;;;;10406494;28;20044;-53
2021/03/18 14:18:48;;;;;;;1.55;0.32;;;8.80;99.90;;;;;;10438135;28;20094;-53
2021/03/18 14:24:09;;;;;;;5.57;0.70;;;8.70;99.90;;;;;;10420877;28;20033;-53
2021/03/18 14:29:30;;;;;;;3.45;0.75;;;8.60;99.90;;;;;;10445362;28;20465;-53
2021/03/18 14:34:51;;;;;;;2.85;0.55;;;8.30;99.90;;;;;;10446000;28;20032;-53
2021/03/18 14:40:16;;;;;;;1.23;0.70;;;8.00;99.90;;;;;;10444677;28;20060;-53
2021/03/18 14:45:38;;;;;;;7.18;0.50;;;7.90;99.90;;;;;;10423199;28;20409;-53
2021/03/18 14:50:59;;;;;;;0.77;0.17;;;7.80;99.90;;;;;;10445513;28;20040;-53
2021/03/18 14:56:21;;;;;;;0.45;0.10;;;7.90;99.90;;;;;;10447549;28;20079;-53
2021/03/18 15:01:43;;;;;;;1.83;0.28;;;8.40;99.90;;;;;;10444693;28;20161;-53
2021/03/18 15:07:04;;;;;;;0.82;0.30;;;9.00;99.90;;;;;;10443219;28;20106;-53
2021/03/18 15:12:26;;;;;;;5.68;0.30;;;9.20;99.90;;;;;;10445449;28;20099;-53
2021/03/18 15:17:47;;;;;;;0.95;0.38;;;8.90;99.90;;;;;;10442724;28;20044;-53
2021/03/18 15:23:08;;;;;;;2.35;0.60;;;8.80;99.90;;;;;;10443218;28;20550;-53
2021/03/18 15:28:29;;;;;;;3.03;0.50;;;8.30;99.90;;;;;;10440991;28;20067;-53
2021/03/18 15:33:51;;;;;;;6.43;0.70;;;7.90;99.90;;;;;;10444237;28;20037;-53
2021/03/18 15:39:12;;;;;;;1.33;0.40;;;7.80;99.90;;;;;;10443220;28;20067;-53
2021/03/18 15:44:33;;;;;;;1.65;0.45;;;7.70;99.90;;;;;;10444851;28;20090;-53
2021/03/18 15:49:54;;;;;;;0.57;0.20;;;7.80;99.90;;;;;;10444456;28;20041;-53
2021/03/18 15:55:15;;;;;;;0.20;0.10;;;7.70;99.90;;;;;;10437036;28;20048;-53
2021/03/18 16:00:36;;;;;;;1.75;0.22;;;7.60;99.90;;;;;;10441717;28;20425;-53
2021/03/18 16:05:57;;;;;;;2.83;0.30;;;7.50;99.90;;;;;;10443269;28;20040;-53
2021/03/18 16:11:19;;;;;;;1.13;0.20;;;7.50;99.90;;;;;;10442673;28;20156;-53
2021/03/18 16:16:40;;;;;;;0.63;0.20;;;7.50;99.90;;;;;;10438477;28;20618;-53
2021/03/18 16:22:01;;;;;;;1.42;0.75;;;7.40;99.90;;;;;;10438502;28;20055;-53
2021/03/18 16:27:22;;;;;;;1.35;0.32;;;7.40;99.90;;;;;;10442757;28;20531;-53
2021/03/18 16:32:45;;;;;;;4.28;1.65;;;7.60;99.90;;;;;;10425779;28;20048;-53
2021/03/18 16:38:07;;;;;;;3.15;0.50;;;7.70;99.90;;;;;;10442791;28;20037;-53
2021/03/18 16:43:29;;;;;;;2.20;0.60;;;7.70;99.90;;;;;;10444899;28;20041;-53
2021/03/18 16:48:50;;;;;;;1.17;0.47;;;7.70;99.90;;;;;;10439385;28;20400;-53
2021/03/18 16:54:11;;;;;;;1.27;0.45;;;7.60;99.90;;;;;;10451550;28;20102;-53
2021/03/18 16:59:32;;;;;;;0.00;0.00;;;7.50;99.90;;;;;;10450079;28;20061;-53
2021/03/18 17:04:53;;;;;;;1.48;0.35;;;7.50;99.90;;;;;;10442537;28;20048;-53
2021/03/18 17:10:18;;;;;;;0.45;0.15;;;7.40;99.90;;;;;;10451061;28;20033;-53
2021/03/18 17:15:39;;;;;;;0.25;0.10;;;7.30;99.90;;;;;;10419280;28;20471;-53
2021/03/18 17:21:00;;;;;;;1.27;0.20;;;7.30;99.90;;;;;;10420277;28;20045;-53
2021/03/18 17:26:21;;;;;;;0.70;0.10;;;7.20;99.90;;;;;;10449822;28;20037;-53
2021/03/18 17:31:42;;;;;;;3.22;0.52;;;7.30;99.90;;;;;;10425579;28;20485;-53
2021/03/18 17:37:03;;;;;;;0.50;0.05;;;7.30;99.90;;;;;;10447464;28;20108;-53
2021/03/18 17:42:24;;;;;;;1.77;0.22;;;7.20;99.90;;;;;;10445458;28;20125;-53
2021/03/18 17:47:45;;;;;;;7.28;1.85;;;7.10;99.90;;;;;;10406711;28;20045;-53
2021/03/18 17:53:06;;;;;;;7.10;0.90;;;7.00;99.90;;;;;;10447255;28;20489;-53
2021/03/18 17:58:28;;;;;;;1.58;0.60;;;7.00;99.90;;;;;;10448589;28;20028;-53
2021/03/18 18:03:49;;;;;;;5.20;1.10;;;6.90;99.90;;;;;;10444637;28;20486;-53
2021/03/18 18:09:10;;;;;;;0.95;0.38;;;6.90;99.90;;;;;;10447570;28;20547;-53
2021/03/18 18:14:31;;;;;;;4.20;0.88;;;6.90;99.90;;;;;;10439407;28;20510;-53
2021/03/18 18:19:53;;;;;;;3.08;0.38;;;6.80;99.90;;;;;;10446509;28;20459;-53
2021/03/18 18:25:16;;;;;;;5.43;1.65;;;6.80;99.90;;;;;;10447739;28;20032;-53
2021/03/18 18:30:37;;;;;;;2.70;0.75;;;6.70;99.90;;;;;;10447147;28;20036;-53
2021/03/18 18:35:59;;;;;;;4.40;1.92;;;6.70;99.90;;;;;;10445473;28;20040;-53
2021/03/18 18:41:21;;;;;;;2.25;0.90;;;6.50;99.90;;;;;;10417298;28;20033;-53
2021/03/18 18:46:43;;;;;;;7.03;2.08;;;6.40;99.90;;;;;;10436612;28;20038;-53
2021/03/18 18:52:04;;;;;;;2.38;0.32;;;6.30;99.90;;;;;;10443779;28;20178;-53
2021/03/18 18:57:26;;;;;;;14.35;2.85;;;6.30;99.90;;;;;;10445361;28;20396;-53
2021/03/18 19:02:47;;;;;;;1.00;0.30;;;6.20;99.90;;;;;;10445660;28;20046;-53
2021/03/18 19:08:09;;;;;;;7.47;1.10;;;6.20;99.90;;;;;;10441092;28;20036;-53
2021/03/18 19:13:30;;;;;;;4.43;0.90;;;6.20;99.90;;;;;;10444269;28;20037;-53
2021/03/18 19:18:51;;;;;;;6.95;0.93;;;6.20;99.90;;;;;;10429189;28;20033;-53
2021/03/18 19:24:12;;;;;;;2.05;0.73;;;6.20;99.90;;;;;;10415554;28;20037;-53
2021/03/18 19:29:33;;;;;;;2.92;0.43;;;6.10;99.90;;;;;;10403731;28;20037;-53
2021/03/18 19:34:54;;;;;;;5.55;0.60;;;6.10;99.90;;;;;;10430292;28;20040;-53
2021/03/18 19:40:19;;;;;;;5.95;1.90;;;6.10;99.90;;;;;;10437513;28;20040;-53
2021/03/18 19:45:43;;;;;;;5.30;0.77;;;6.00;99.90;;;;;;10443214;28;20025;-52
2021/03/18 19:51:06;;;;;;;4.43;0.43;;;6.10;99.90;;;;;;10426100;28;20099;-53
2021/03/18 19:56:27;;;;;;;1.33;0.68;;;6.00;99.90;;;;;;10403478;28;20126;-53
2021/03/18 20:01:48;;;;;;;0.90;0.40;;;6.00;99.90;;;;;;10420688;28;20055;-53
2021/03/18 20:07:12;;;;;;;2.33;0.40;;;5.90;99.90;;;;;;10441240;28;20041;-53
2021/03/18 20:12:34;;;;;;;1.42;0.65;;;5.90;99.90;;;;;;10442275;28;20485;-53
2021/03/18 20:17:55;;;;;;;0.80;0.30;;;5.90;99.90;;;;;;10440841;28;20045;-52
2021/03/18 20:23:16;;;;;;;0.68;0.28;;;5.80;99.90;;;;;;10442879;28;20433;-52
2021/03/18 20:28:37;;;;;;;1.45;0.50;;;5.90;99.90;;;;;;10440908;28;20540;-53
2021/03/18 20:33:58;;;;;;;1.23;0.47;;;5.90;99.90;;;;;;10441505;28;20515;-53
2021/03/18 20:39:19;;;;;;;0.70;0.30;;;5.90;99.90;;;;;;10442153;28;20072;-52
2021/03/18 20:44:41;;;;;;;2.53;0.38;;;5.80;99.90;;;;;;10442548;28;20407;-53
2021/03/18 20:50:03;;;;;;;2.58;0.38;;;5.80;99.90;;;;;;10440256;28;20120;-52
2021/03/18 20:55:26;;;;;;;2.55;1.20;;;5.70;99.90;;;;;;10441290;28;20037;-53
2021/03/18 21:00:48;;;;;;;2.00;0.82;;;5.70;99.90;;;;;;10441528;28;20045;-53
2021/03/18 21:06:09;;;;;;;1.27;0.20;;;5.70;99.90;;;;;;10426649;28;20044;-53
2021/03/18 21:11:31;;;;;;;0.50;0.20;;;5.70;99.90;;;;;;10438701;28;20045;-53
2021/03/18 21:16:52;;;;;;;0.20;0.10;;;5.60;99.90;;;;;;10441988;28;20287;-53
2021/03/18 21:22:12;;;;;;;4.78;0.30;;;5.60;99.90;;;;;;10422422;28;20485;-52
2021/03/18 21:27:36;;;;;;;0.30;0.08;;;5.50;99.90;;;;;;10442068;28;20898;-53
2021/03/18 21:32:57;;;;;;;0.55;0.25;;;5.40;99.90;;;;;;10445976;28;20033;-53
2021/03/18 21:38:18;;;;;;;0.45;0.10;;;5.30;99.90;;;;;;10442509;28;20046;-52
2021/03/18 21:43:39;;;;;;;2.83;0.13;;;5.30;99.90;;;;;;10448284;28;20044;-52
2021/03/18 21:49:01;;;;;;;4.38;0.40;;;5.40;99.90;;;;;;10440517;28;20045;-52
2021/03/18 21:54:22;;;;;;;0.10;0.10;;;5.30;99.90;;;;;;10448653;28;20041;-52
2021/03/18 21:59:43;;;;;;;3.50;0.30;;;5.30;99.90;;;;;;10433438;28;20049;-53
2021/03/18 22:05:06;;;;;;;0.80;0.32;;;5.30;99.90;;;;;;10437475;28;20086;-52
2021/03/18 22:10:27;;;;;;;1.38;0.50;;;5.50;99.90;;;;;;10447147;28;20397;-53
2021/03/18 22:15:48;;;;;;;0.77;0.30;;;5.30;99.90;;;;;;10446213;28;20033;-53
2021/03/18 22:21:09;;;;;;;0.50;0.20;;;5.20;99.90;;;;;;10431465;28;20041;-53
2021/03/18 22:26:30;;;;;;;6.22;0.57;;;5.20;99.90;;;;;;10445639;28;20523;-53
2021/03/18 22:31:51;;;;;;;2.92;0.40;;;5.20;99.90;;;;;;10445910;28;20041;-53
2021/03/18 22:37:12;;;;;;;1.98;0.57;;;5.30;99.90;;;;;;10442766;28;20103;-53
2021/03/18 22:42:33;;;;;;;0.73;0.20;;;5.30;99.90;;;;;;10445333;28;20044;-53
2021/03/18 22:47:55;;;;;;;0.65;0.30;;;5.10;99.90;;;;;;10446550;28;20041;-53
2021/03/18 22:53:16;;;;;;;3.38;0.25;;;5.00;99.90;;;;;;10445940;28;20067;-53
2021/03/18 22:58:37;;;;;;;2.22;0.30;;;4.90;99.90;;;;;;10446060;28;20044;-52
2021/03/18 23:03:58;;;;;;;3.28;0.60;;;4.80;99.90;;;;;;10445235;28;20045;-52
2021/03/18 23:09:20;;;;;;;1.05;0.47;;;4.80;99.90;;;;;;10440351;28;20072;-53
2021/03/18 23:14:42;;;;;;;0.95;0.20;;;4.70;99.90;;;;;;10428456;28;20072;-53
2021/03/18 23:20:03;;;;;;;0.47;0.20;;;4.60;99.90;;;;;;10440791;28;20156;-53
2021/03/18 23:25:25;;;;;;;1.63;0.20;;;4.40;99.90;;;;;;10412301;28;20029;-53
2021/03/18 23:30:50;;;;;;;0.98;0.22;;;4.30;99.90;;;;;;10444933;28;20040;-52
2021/03/18 23:36:11;;;;;;;0.35;0.22;;;4.30;99.90;;;;;;10429050;28;20558;-52
2021/03/18 23:41:32;;;;;;;1.00;0.45;;;4.30;99.90;;;;;;10443862;28;20409;-52
2021/03/18 23:46:53;;;;;;;0.57;0.22;;;4.30;99.90;;;;;;10442203;28;20036;-52
2021/03/18 23:52:15;;;;;;;1.75;0.38;;;4.20;99.90;;;;;;10441572;28;20512;-52
2021/03/18 23:57:36;;;;;;;1.67;0.57;;;4.20;99.90;;;;;;10440349;28;20037;-52
